This is the latest recevied weather packets stored in our database for station/object HA3YA-WX. If no packets are shown the sender has not sent any weather packets the latest 10 day(s).
| Time | Temp. | Humidity | Pressure | Rain* | Wind** | Luminosity | Snow |
|---|---|---|---|---|---|---|---|
| 1788696183 | 28.33° C | 55% | 1012.5 hPa | - | - | - | - |
| 1788695583 | 27.78° C | 57% | 1012 hPa | - | - | - | - |
| 1788694983 | 28.33° C | 56% | 1012 hPa | - | - | - | - |
| 1788694382 | 27.78° C | 55% | 1012.7 hPa | - | - | - | - |
| 1788692583 | 27.22° C | 57% | 1012.7 hPa | - | - | - | - |
| 1788691383 | 27.22° C | 57% | 1012 hPa | - | - | - | - |
| 1788690783 | 27.78° C | 56% | 1012 hPa | - | - | - | - |
| 1788690182 | 27.22° C | 56% | 1012 hPa | - | - | - | - |
| 1788689582 | 26.67° C | 59% | 1012.9 hPa | - | - | - | - |
| 1788688982 | 26.11° C | 59% | 1012.9 hPa | - | - | - | - |
| 1788688382 | 26.11° C | 59% | 1013 hPa | - | - | - | - |
| 1788687783 | 25.56° C | 60% | 1013 hPa | - | - | - | - |
| 1788687182 | 25.56° C | 59% | 1013.2 hPa | - | - | - | - |
| 1788686583 | 25.56° C | 61% | 1013.2 hPa | - | - | - | - |
| 1788685982 | 25° C | 61% | 1013.2 hPa | - | - | - | - |
| 1788684782 | 24.44° C | 62% | 1013 hPa | - | - | - | - |
| 1788683583 | 23.33° C | 64% | 1013 hPa | - | - | - | - |
| 1788682982 | 23.33° C | 65% | 1013 hPa | - | - | - | - |
| 1788682383 | 23.33° C | 66% | 1013.2 hPa | - | - | - | - |
| 1788681783 | 22.78° C | 68% | 1013 hPa | - | - | - | - |
| 1788679982 | 20.56° C | 73% | 1012.8 hPa | - | - | - | - |
| 1788679383 | 20.56° C | 73% | 1012.8 hPa | - | - | - | - |
| 1788678782 | 20° C | 74% | 1012 hPa | - | - | - | - |
| 1788678183 | 20° C | 74% | 1012 hPa | - | - | - | - |
| 1788677583 | 19.44° C | 74% | 1012 hPa | - | - | - | - |
* Rain since midnight (hover to see other rain measurements)
** Current wind speed in m/s (hover to see current wind gust speed)